Aviation Digital Data Service (ADDS)

Output produced by METARs form (2334 UTC 30 November 2022)
found at http://aviationweather.gov/metar/data/
 
METAR text: KCOS 302254Z 13003KT 10SM FEW250 M01/M08 A3002 RMK AO2 SLP224 T10061078
Conditions at: KCOS (COLORADO SPRINGS, CO, US) observed 2254 UTC 30 November 2022
Temperature: -0.6°C (31°F)
Dewpoint: -7.8°C (18°F) [RH = 58%]
Pressure (altimeter): 30.02 inches Hg (1016.7 mb)
[Sea-level pressure: 1022.4 mb]
Winds: from the SE (130 degrees) at 3 MPH (3 knots; 1.5 m/s)
Visibility: 10 or more miles (16+ km)
Ceiling: at least 12,000 feet AGL
Clouds: few clouds at 25000 feet AGL
Weather: no significant weather observed at this time

METAR text: KCOS 302154Z 17005KT 10SM FEW250 M01/M07 A3003 RMK AO2 SLP230 T10061072
Conditions at: KCOS (COLORADO SPRINGS, CO, US) observed 2154 UTC 30 November 2022
Temperature: -0.6°C (31°F)
Dewpoint: -7.2°C (19°F) [RH = 61%]
Pressure (altimeter): 30.03 inches Hg (1017.0 mb)
[Sea-level pressure: 1023.0 mb]
Winds: from the S (170 degrees) at 6 MPH (5 knots; 2.6 m/s)
Visibility: 10 or more miles (16+ km)
Ceiling: at least 12,000 feet AGL
Clouds: few clouds at 25000 feet AGL
Weather: no significant weather observed at this time

Forecast for: KCOS (COLORADO SPRINGS, CO, US)
Text: KCOS 301727Z 3018/0118 16007KT P6SM SCT250
Forecast period: 1800 UTC 30 November 2022 to 0300 UTC 01 December 2022
Forecast type: FROM: standard forecast or significant change
Winds: from the SSE (160 degrees) at 8 MPH (7 knots; 3.6 m/s)
Visibility: 6 or more miles (10+ km)
Ceiling: at least 12,000 feet AGL
Clouds: scattered clouds at 25000 feet AGL
Weather: no significant weather forecast for this period
Text: FM010300 02007KT P6SM FEW140 SCT250
Forecast period: 0300 to 1700 UTC 01 December 2022
Forecast type: FROM: standard forecast or significant change
Winds: from the NNE (20 degrees) at 8 MPH (7 knots; 3.6 m/s)
Visibility: 6 or more miles (10+ km)
Ceiling: at least 12,000 feet AGL
Clouds: few clouds at 14000 feet AGL
scattered clouds at 25000 feet AGL
Weather: no significant weather forecast for this period
Text: FM011700 20008KT P6SM FEW250
Forecast period: 1700 to 1800 UTC 01 December 2022
Forecast type: FROM: standard forecast or significant change
Winds: from the SSW (200 degrees) at 9 MPH (8 knots; 4.1 m/s)
Visibility: 6 or more miles (10+ km)
Ceiling: at least 12,000 feet AGL
Clouds: few clouds at 25000 feet AGL
Weather: no significant weather forecast for this period